Terminal Aerodrome Forecast
Issued by NWS Pocatello, ID

Home | Current Version | Previous Version | Text Only | Print | Product List | Glossary On
Versions: 1 2 3 4 5 6 7 8 9 10 11 12 13 14 15
000
FTUS45 KPIH 270500
TAFBYI
TAF
KBYI 270520Z 2706/2806 VRB06KT P6SM VCTS SCT060 BKN100CB
     FM271200 VRB06KT P6SM BKN100
     FM271600 VRB06KT P6SM SCT060
     FM280200 VRB06KT P6SM SKC=

USA.gov is the U.S. government's official web portal to all federal, state and local government web resources and services.